createdAt,value
2018-10-18T00:03:17.020Z,13.80
2018-10-18T00:08:20.561Z,13.70
2018-10-18T00:13:24.150Z,13.70
2018-10-18T00:18:27.962Z,13.60
2018-10-18T00:23:32.646Z,13.60
2018-10-18T00:28:36.197Z,13.50
2018-10-18T00:33:42.225Z,13.50
2018-10-18T00:38:45.828Z,13.40
2018-10-18T00:43:49.385Z,13.40
2018-10-18T00:48:52.948Z,13.40
2018-10-18T00:53:56.716Z,13.30
2018-10-18T00:59:00.257Z,13.30
2018-10-18T01:09:18.379Z,13.30
2018-10-18T01:14:21.959Z,13.30
2018-10-18T01:19:25.697Z,13.20
2018-10-18T01:24:29.330Z,13.20
2018-10-18T01:29:51.407Z,13.10
2018-10-18T01:34:55.011Z,13.10
2018-10-18T01:39:58.663Z,13.00
2018-10-18T01:45:08.699Z,13.00
2018-10-18T01:50:22.279Z,13.00
2018-10-18T01:55:26.003Z,12.90
2018-10-18T02:00:29.680Z,12.80
2018-10-18T02:05:33.255Z,12.80
2018-10-18T02:10:36.849Z,12.90
2018-10-18T02:15:40.419Z,12.90
2018-10-18T02:20:44.250Z,12.90
2018-10-18T02:25:48.016Z,12.90
2018-10-18T02:30:51.990Z,12.80
2018-10-18T02:35:55.756Z,12.80
2018-10-18T02:41:00.537Z,12.80
2018-10-18T02:46:35.097Z,12.70
2018-10-18T02:51:38.801Z,12.70
2018-10-18T02:56:42.676Z,12.60
2018-10-18T03:01:46.279Z,12.60
2018-10-18T03:06:49.954Z,12.60
2018-10-18T03:11:54.238Z,12.60
2018-10-18T03:16:58.547Z,12.70
2018-10-18T03:22:02.180Z,12.60
2018-10-18T03:27:06.318Z,12.60
2018-10-18T03:32:09.930Z,12.60
2018-10-18T03:37:13.568Z,12.60
2018-10-18T03:42:18.132Z,12.70
2018-10-18T03:47:22.294Z,12.70
2018-10-18T03:52:25.872Z,12.60
2018-10-18T03:57:29.749Z,12.60
2018-10-18T04:02:33.325Z,12.60
2018-10-18T04:07:36.911Z,12.60
2018-10-18T04:12:43.185Z,12.70
2018-10-18T04:17:46.950Z,12.70
2018-10-18T04:22:51.035Z,12.60
2018-10-18T04:27:54.611Z,12.40
2018-10-18T04:32:58.321Z,12.40
2018-10-18T04:38:02.445Z,12.30
2018-10-18T04:43:06.306Z,12.30
2018-10-18T04:48:10.011Z,12.20
2018-10-18T04:53:14.010Z,12.20
2018-10-18T04:58:17.952Z,12.00
2018-10-18T05:03:21.548Z,12.00
2018-10-18T05:08:26.389Z,12.00
2018-10-18T05:13:32.740Z,12.00
2018-10-18T05:18:36.459Z,12.10
2018-10-18T05:23:40.723Z,12.10
2018-10-18T05:28:44.360Z,12.10
2018-10-18T05:33:47.989Z,12.00
2018-10-18T05:38:51.548Z,11.90
2018-10-18T05:43:55.271Z,12.00
2018-10-18T05:48:58.899Z,12.00
2018-10-18T05:54:02.910Z,11.90
2018-10-18T05:59:06.691Z,11.80
2018-10-18T06:04:14.379Z,11.80
2018-10-18T06:09:28.888Z,11.80
2018-10-18T06:14:32.611Z,11.90
2018-10-18T06:19:42.504Z,11.80
2018-10-18T06:24:46.533Z,11.80
2018-10-18T06:29:50.379Z,11.80
2018-10-18T06:34:54.223Z,11.90
2018-10-18T06:39:57.911Z,11.90
2018-10-18T06:45:01.730Z,12.00
2018-10-18T06:50:06.539Z,12.10
2018-10-18T06:55:10.347Z,12.20
2018-10-18T07:00:16.070Z,12.40
2018-10-18T07:05:19.678Z,12.60
2018-10-18T07:10:23.965Z,12.70
2018-10-18T07:15:27.869Z,12.80
2018-10-18T07:20:31.524Z,13.00
2018-10-18T07:25:35.132Z,13.20
2018-10-18T07:30:38.762Z,13.40
2018-10-18T07:35:42.595Z,13.70
2018-10-18T07:40:46.337Z,14.00
2018-10-18T07:45:50.435Z,14.30
2018-10-18T07:50:54.852Z,14.50
2018-10-18T07:55:59.145Z,14.70
2018-10-18T08:01:04.248Z,14.80
2018-10-18T08:06:08.104Z,15.00
2018-10-18T08:11:11.790Z,15.20
2018-10-18T08:16:15.800Z,15.30
2018-10-18T08:21:19.683Z,15.70
2018-10-18T08:26:23.319Z,16.00
2018-10-18T08:31:27.300Z,16.30
2018-10-18T08:36:30.899Z,16.50
2018-10-18T08:41:35.227Z,16.60
2018-10-18T08:46:38.831Z,16.80
2018-10-18T08:51:42.643Z,17.10
2018-10-18T08:56:46.688Z,17.20
2018-10-18T09:01:50.262Z,17.40
2018-10-18T09:06:54.283Z,17.70
2018-10-18T09:11:57.955Z,18.00
2018-10-18T09:17:01.543Z,18.10
2018-10-18T09:22:08.648Z,18.60
2018-10-18T09:27:12.540Z,19.80
2018-10-18T09:32:16.501Z,21.30
2018-10-18T09:37:20.512Z,22.10
2018-10-18T09:42:25.408Z,22.90
2018-10-18T09:47:29.037Z,23.50
2018-10-18T09:52:32.685Z,23.80
2018-10-18T09:57:36.274Z,24.50
2018-10-18T10:02:46.082Z,24.00
2018-10-18T10:07:49.767Z,24.60
2018-10-18T10:12:53.378Z,24.70
2018-10-18T10:17:57.038Z,24.50
2018-10-18T10:23:01.728Z,24.60
2018-10-18T10:28:05.714Z,24.70
2018-10-18T10:33:09.718Z,24.70
2018-10-18T10:38:13.211Z,24.80
2018-10-18T10:43:16.875Z,24.90
2018-10-18T10:48:23.720Z,25.00
2018-10-18T10:53:28.063Z,25.40
2018-10-18T10:58:31.717Z,25.00
2018-10-18T11:03:38.544Z,24.70
2018-10-18T11:08:47.530Z,24.50
2018-10-18T11:13:52.089Z,24.50
2018-10-18T11:23:59.522Z,24.20
2018-10-18T11:29:03.171Z,24.50
2018-10-18T11:34:06.850Z,24.40
2018-10-18T11:39:11.020Z,24.50
2018-10-18T11:44:14.814Z,24.40
2018-10-18T11:49:18.400Z,24.00
2018-10-18T11:54:22.116Z,24.10
2018-10-18T11:59:25.995Z,24.00
2018-10-18T12:04:29.809Z,24.00
2018-10-18T12:09:33.575Z,24.40
2018-10-18T12:14:37.252Z,24.60
2018-10-18T12:19:41.532Z,24.60
2018-10-18T12:24:45.500Z,24.60
2018-10-18T12:29:49.772Z,24.70
2018-10-18T12:34:53.449Z,25.00
2018-10-18T12:39:57.092Z,24.90
2018-10-18T12:45:00.711Z,24.80
2018-10-18T12:50:04.789Z,25.00
2018-10-18T12:55:09.374Z,25.10
2018-10-18T13:00:14.045Z,25.00
2018-10-18T13:05:17.704Z,24.80
2018-10-18T13:10:21.372Z,24.50
2018-10-18T13:15:25.124Z,24.70
2018-10-18T13:20:28.765Z,24.80
2018-10-18T13:30:35.741Z,25.10
2018-10-18T13:40:42.599Z,25.10
2018-10-18T13:55:52.867Z,25.40
2018-10-18T14:00:56.504Z,25.20
2018-10-18T14:06:00.292Z,25.00
2018-10-18T14:16:09.182Z,25.20
2018-10-18T14:21:12.906Z,25.20
2018-10-18T14:26:16.706Z,25.20
2018-10-18T14:31:20.147Z,25.40
2018-10-18T14:41:27.122Z,25.90
2018-10-18T14:46:31.282Z,25.70
2018-10-18T14:51:34.988Z,25.50
2018-10-18T14:56:40.064Z,25.40
2018-10-18T15:01:44.420Z,25.40
2018-10-18T15:06:48.063Z,25.40
2018-10-18T15:11:51.657Z,25.60
2018-10-18T15:16:58.494Z,25.00
2018-10-18T15:22:02.159Z,25.00
2018-10-18T15:27:07.357Z,24.40
2018-10-18T15:32:11.134Z,24.10
2018-10-18T15:47:22.491Z,23.40
2018-10-18T15:52:26.002Z,23.30
2018-10-18T15:57:29.832Z,23.10
2018-10-18T16:02:33.544Z,23.10
2018-10-18T16:07:37.663Z,22.70
2018-10-18T16:12:41.546Z,22.40
2018-10-18T16:17:45.359Z,22.40
2018-10-18T16:22:49.354Z,22.20
2018-10-18T16:27:53.282Z,21.90
2018-10-18T16:32:56.882Z,21.70
2018-10-18T16:38:00.716Z,21.30
2018-10-18T16:43:04.483Z,21.00
2018-10-18T16:48:08.560Z,20.70
2018-10-18T16:53:12.235Z,20.40
2018-10-18T16:58:16.039Z,20.10
2018-10-18T17:03:19.577Z,19.90
2018-10-18T17:08:23.219Z,19.60
2018-10-18T17:13:27.147Z,19.30
2018-10-18T17:18:30.886Z,19.00
2018-10-18T17:23:34.805Z,19.00
2018-10-18T17:28:38.979Z,18.90
2018-10-18T17:33:42.559Z,18.80
2018-10-18T17:38:46.926Z,18.80
2018-10-18T17:43:50.506Z,18.70
2018-10-18T17:48:54.086Z,18.70
2018-10-18T17:53:58.281Z,18.60
2018-10-18T17:59:01.927Z,18.50
2018-10-18T18:04:06.078Z,18.40
2018-10-18T18:09:09.608Z,18.30
2018-10-18T18:14:13.284Z,18.70
2018-10-18T18:19:17.156Z,18.40
2018-10-18T18:24:20.752Z,18.10
2018-10-18T18:29:24.327Z,18.10
2018-10-18T18:34:28.848Z,18.00
2018-10-18T18:39:32.479Z,18.00
2018-10-18T18:44:36.127Z,18.00
2018-10-18T18:49:39.741Z,18.00
2018-10-18T18:54:44.912Z,17.90
2018-10-18T18:59:48.584Z,17.90
2018-10-18T19:04:52.232Z,17.90
2018-10-18T19:09:56.300Z,17.80
2018-10-18T19:15:00.047Z,17.60
2018-10-18T19:20:07.109Z,17.40
2018-10-18T19:25:11.034Z,17.10
2018-10-18T19:30:16.773Z,17.00
2018-10-18T19:35:20.479Z,16.90
2018-10-18T19:40:24.274Z,16.60
2018-10-18T19:45:28.041Z,16.70
2018-10-18T19:50:31.632Z,16.70
2018-10-18T19:55:36.913Z,16.70
2018-10-18T20:00:40.547Z,16.90
2018-10-18T20:05:45.110Z,16.90
2018-10-18T20:10:49.304Z,16.90
2018-10-18T20:15:52.975Z,16.80
2018-10-18T20:20:56.805Z,16.60
2018-10-18T20:26:00.663Z,16.60
2018-10-18T20:31:04.384Z,16.60
2018-10-18T20:36:08.364Z,16.40
2018-10-18T20:41:12.055Z,16.30
2018-10-18T20:46:15.777Z,16.30
2018-10-18T20:51:19.463Z,16.40
2018-10-18T20:56:23.529Z,16.40
2018-10-18T21:01:28.816Z,16.40
2018-10-18T21:06:32.632Z,16.40
2018-10-18T21:11:36.111Z,16.50
2018-10-18T21:16:40.182Z,16.70
2018-10-18T21:21:44.358Z,16.80
2018-10-18T21:26:48.052Z,16.90
2018-10-18T21:31:51.700Z,17.00
2018-10-18T21:36:55.394Z,17.00
2018-10-18T21:41:59.187Z,16.90
2018-10-18T21:47:03.737Z,16.80
2018-10-18T21:52:07.785Z,16.80
2018-10-18T21:57:20.514Z,16.60
2018-10-18T22:02:24.581Z,16.30
2018-10-18T22:07:28.194Z,16.10
2018-10-18T22:12:31.859Z,16.00
2018-10-18T22:17:37.711Z,15.90
2018-10-18T22:22:41.340Z,15.70
2018-10-18T22:27:45.139Z,15.50
2018-10-18T22:32:48.994Z,15.40
2018-10-18T22:37:59.681Z,15.30
2018-10-18T22:43:03.731Z,15.30
2018-10-18T22:48:07.647Z,15.10
2018-10-18T22:53:11.280Z,15.20
2018-10-18T22:58:14.871Z,15.20
2018-10-18T23:03:19.963Z,15.30
2018-10-18T23:08:24.265Z,15.40
2018-10-18T23:13:27.822Z,15.50
2018-10-18T23:18:33.449Z,15.60
2018-10-18T23:28:47.743Z,15.40
2018-10-18T23:33:51.717Z,15.20
2018-10-18T23:38:55.440Z,15.10
2018-10-18T23:43:59.260Z,15.00
2018-10-18T23:49:04.744Z,15.10
2018-10-18T23:54:08.941Z,15.20
2018-10-18T23:59:12.700Z,15.30
